Samaria, South Carolina
Current Conditions -  °F | °C
As of 7:35 AM on Sunday 23 Nov 2014 (Local Time) from KAIK Reporting Station
Moderate Rain Moderate Rain  
Wind Chill: 52°   Ceiling: 300
Heat Index: 52°   Visibility: 5mi
Dew Point: 52°   Wind: 8mph
Humidity: 100%   Direction: 60°ENE
Pressure: 30.14"   Gusts: NA
Location:  33.9549°N, 81.564°W
Report Text: KAIK 231235Z AUTO 06007KT 5SM RA OVC003 11/11 A3014 RMK AO2 PNO
Loading
Personal Weather Stations






























Interactive Weather Map New forecast layout! Learn more

10-Day Weather Forecast

Advertisements
Track Severe Weather on mobile